sensor_id;sensor_type;location;lat;lon;timestamp;pressure;altitude;pressure_sealevel;temperature;humidity
47738;BME280;33502;47.182;27.506;2023-07-22T00:01:55;58809.00;;;-144.94;100.00
47738;BME280;33502;47.182;27.506;2023-07-22T00:04:20;58809.00;;;-144.94;100.00
47738;BME280;33502;47.182;27.506;2023-07-22T00:06:46;58809.00;;;-144.94;100.00
47738;BME280;33502;47.182;27.506;2023-07-22T00:09:11;58809.00;;;-144.94;100.00
47738;BME280;33502;47.182;27.506;2023-07-22T00:11:37;58809.00;;;-144.94;100.00
47738;BME280;33502;47.182;27.506;2023-07-22T00:14:02;58809.00;;;-144.94;100.00
47738;BME280;33502;47.182;27.506;2023-07-22T00:16:31;58809.00;;;-144.94;100.00
47738;BME280;33502;47.182;27.506;2023-07-22T00:18:57;58809.00;;;-144.94;100.00
47738;BME280;33502;47.182;27.506;2023-07-22T00:21:23;58809.00;;;-144.94;100.00
47738;BME280;33502;47.182;27.506;2023-07-22T00:23:48;58809.00;;;-144.94;100.00
47738;BME280;33502;47.182;27.506;2023-07-22T00:26:14;58809.00;;;-144.94;100.00
47738;BME280;33502;47.182;27.506;2023-07-22T00:28:39;58809.00;;;-144.94;100.00
47738;BME280;33502;47.182;27.506;2023-07-22T00:31:05;58809.00;;;-144.94;100.00
47738;BME280;33502;47.182;27.506;2023-07-22T00:33:30;58809.00;;;-144.94;100.00
47738;BME280;33502;47.182;27.506;2023-07-22T00:35:56;58809.00;;;-144.94;100.00
47738;BME280;33502;47.182;27.506;2023-07-22T00:38:22;58809.00;;;-144.94;100.00
47738;BME280;33502;47.182;27.506;2023-07-22T00:40:47;58809.00;;;-144.94;100.00
47738;BME280;33502;47.182;27.506;2023-07-22T00:43:13;58809.00;;;-144.94;100.00
47738;BME280;33502;47.182;27.506;2023-07-22T00:45:39;58809.00;;;-144.94;100.00
47738;BME280;33502;47.182;27.506;2023-07-22T00:48:05;58809.00;;;-144.94;100.00
47738;BME280;33502;47.182;27.506;2023-07-22T00:50:31;58809.00;;;-144.94;100.00
47738;BME280;33502;47.182;27.506;2023-07-22T00:52:57;58809.00;;;-144.94;100.00
47738;BME280;33502;47.182;27.506;2023-07-22T00:55:22;58809.00;;;-144.94;100.00
47738;BME280;33502;47.182;27.506;2023-07-22T00:57:48;58809.00;;;-144.94;100.00
47738;BME280;33502;47.182;27.506;2023-07-22T01:00:14;58809.00;;;-144.94;100.00
47738;BME280;33502;47.182;27.506;2023-07-22T01:02:41;58809.00;;;-144.94;100.00
47738;BME280;33502;47.182;27.506;2023-07-22T01:05:08;58809.00;;;-144.94;100.00
47738;BME280;33502;47.182;27.506;2023-07-22T01:07:35;58809.00;;;-144.94;100.00
47738;BME280;33502;47.182;27.506;2023-07-22T01:10:01;58809.00;;;-144.94;100.00
47738;BME280;33502;47.182;27.506;2023-07-22T01:12:28;58809.00;;;-144.94;100.00
47738;BME280;33502;47.182;27.506;2023-07-22T01:14:54;58809.00;;;-144.94;100.00
47738;BME280;33502;47.182;27.506;2023-07-22T01:17:20;58809.00;;;-144.94;100.00
47738;BME280;33502;47.182;27.506;2023-07-22T01:19:45;58809.00;;;-144.94;100.00
47738;BME280;33502;47.182;27.506;2023-07-22T01:22:11;58809.00;;;-144.94;100.00
47738;BME280;33502;47.182;27.506;2023-07-22T01:24:38;58809.00;;;-144.94;100.00
47738;BME280;33502;47.182;27.506;2023-07-22T01:27:05;58809.00;;;-144.94;100.00
47738;BME280;33502;47.182;27.506;2023-07-22T01:29:34;58809.00;;;-144.94;100.00
47738;BME280;33502;47.182;27.506;2023-07-22T01:32:00;58809.00;;;-144.94;100.00
47738;BME280;33502;47.182;27.506;2023-07-22T01:34:25;58809.00;;;-144.94;100.00
47738;BME280;33502;47.182;27.506;2023-07-22T01:36:51;58809.00;;;-144.94;100.00
47738;BME280;33502;47.182;27.506;2023-07-22T01:39:17;58809.00;;;-144.94;100.00
47738;BME280;33502;47.182;27.506;2023-07-22T01:41:47;58809.00;;;-144.94;100.00
47738;BME280;33502;47.182;27.506;2023-07-22T01:44:13;58809.00;;;-144.94;100.00
47738;BME280;33502;47.182;27.506;2023-07-22T01:46:39;58809.00;;;-144.94;100.00
47738;BME280;33502;47.182;27.506;2023-07-22T01:49:05;58809.00;;;-144.94;100.00
47738;BME280;33502;47.182;27.506;2023-07-22T01:51:33;58809.00;;;-144.94;100.00
47738;BME280;33502;47.182;27.506;2023-07-22T01:53:59;58809.00;;;-144.94;100.00
47738;BME280;33502;47.182;27.506;2023-07-22T01:56:25;58809.00;;;-144.94;100.00
47738;BME280;33502;47.182;27.506;2023-07-22T01:58:50;58809.00;;;-144.94;100.00
47738;BME280;33502;47.182;27.506;2023-07-22T02:01:16;58809.00;;;-144.94;100.00
47738;BME280;33502;47.182;27.506;2023-07-22T02:03:42;58809.00;;;-144.94;100.00
47738;BME280;33502;47.182;27.506;2023-07-22T02:06:07;58809.00;;;-144.94;100.00
47738;BME280;33502;47.182;27.506;2023-07-22T02:08:33;58809.00;;;-144.94;100.00
47738;BME280;33502;47.182;27.506;2023-07-22T02:11:02;58809.00;;;-144.94;100.00
47738;BME280;33502;47.182;27.506;2023-07-22T02:13:32;58809.00;;;-144.94;100.00
47738;BME280;33502;47.182;27.506;2023-07-22T02:15:58;58809.00;;;-144.94;100.00
47738;BME280;33502;47.182;27.506;2023-07-22T02:18:24;58809.00;;;-144.94;100.00
47738;BME280;33502;47.182;27.506;2023-07-22T02:20:50;58809.00;;;-144.94;100.00
47738;BME280;33502;47.182;27.506;2023-07-22T02:23:16;58809.00;;;-144.94;100.00
47738;BME280;33502;47.182;27.506;2023-07-22T02:25:41;58809.00;;;-144.94;100.00
47738;BME280;33502;47.182;27.506;2023-07-22T02:28:07;58809.00;;;-144.94;100.00
47738;BME280;33502;47.182;27.506;2023-07-22T02:30:36;58809.00;;;-144.94;100.00
47738;BME280;33502;47.182;27.506;2023-07-22T02:33:02;58809.00;;;-144.94;100.00
47738;BME280;33502;47.182;27.506;2023-07-22T02:35:28;58809.00;;;-144.94;100.00
47738;BME280;33502;47.182;27.506;2023-07-22T02:37:54;58809.00;;;-144.94;100.00
47738;BME280;33502;47.182;27.506;2023-07-22T02:40:19;58809.00;;;-144.94;100.00
47738;BME280;33502;47.182;27.506;2023-07-22T02:42:45;58809.00;;;-144.94;100.00
47738;BME280;33502;47.182;27.506;2023-07-22T02:45:10;58809.00;;;-144.94;100.00
47738;BME280;33502;47.182;27.506;2023-07-22T02:47:36;58809.00;;;-144.94;100.00
47738;BME280;33502;47.182;27.506;2023-07-22T02:50:02;58809.00;;;-144.94;100.00
47738;BME280;33502;47.182;27.506;2023-07-22T02:52:28;58809.00;;;-144.94;100.00
47738;BME280;33502;47.182;27.506;2023-07-22T02:55:08;58809.00;;;-144.94;100.00
47738;BME280;33502;47.182;27.506;2023-07-22T02:57:34;58809.00;;;-144.94;100.00
47738;BME280;33502;47.182;27.506;2023-07-22T03:00:00;58809.00;;;-144.94;100.00
47738;BME280;33502;47.182;27.506;2023-07-22T03:02:25;58809.00;;;-144.94;100.00
47738;BME280;33502;47.182;27.506;2023-07-22T03:04:51;58809.00;;;-144.94;100.00
47738;BME280;33502;47.182;27.506;2023-07-22T03:07:17;58809.00;;;-144.94;100.00
47738;BME280;33502;47.182;27.506;2023-07-22T03:09:42;58809.00;;;-144.94;100.00
47738;BME280;33502;47.182;27.506;2023-07-22T03:12:08;58809.00;;;-144.94;100.00
47738;BME280;33502;47.182;27.506;2023-07-22T03:14:33;58809.00;;;-144.94;100.00
47738;BME280;33502;47.182;27.506;2023-07-22T03:17:02;58809.00;;;-144.94;100.00
47738;BME280;33502;47.182;27.506;2023-07-22T03:19:29;58809.00;;;-144.94;100.00
47738;BME280;33502;47.182;27.506;2023-07-22T03:21:55;58809.00;;;-144.94;100.00
47738;BME280;33502;47.182;27.506;2023-07-22T03:24:20;58809.00;;;-144.94;100.00
47738;BME280;33502;47.182;27.506;2023-07-22T03:26:46;58809.00;;;-144.94;100.00
47738;BME280;33502;47.182;27.506;2023-07-22T03:29:11;58809.00;;;-144.94;100.00
47738;BME280;33502;47.182;27.506;2023-07-22T03:31:37;58809.00;;;-144.94;100.00
47738;BME280;33502;47.182;27.506;2023-07-22T03:34:03;58809.00;;;-144.94;100.00
47738;BME280;33502;47.182;27.506;2023-07-22T03:36:28;58809.00;;;-144.94;100.00
47738;BME280;33502;47.182;27.506;2023-07-22T03:38:54;58809.00;;;-144.94;100.00
47738;BME280;33502;47.182;27.506;2023-07-22T03:41:19;58809.00;;;-144.94;100.00
47738;BME280;33502;47.182;27.506;2023-07-22T03:43:45;58809.00;;;-144.94;100.00
47738;BME280;33502;47.182;27.506;2023-07-22T03:46:10;58809.00;;;-144.94;100.00
47738;BME280;33502;47.182;27.506;2023-07-22T03:48:36;58809.00;;;-144.94;100.00
47738;BME280;33502;47.182;27.506;2023-07-22T03:51:02;58809.00;;;-144.94;100.00
47738;BME280;33502;47.182;27.506;2023-07-22T03:53:27;58809.00;;;-144.94;100.00
47738;BME280;33502;47.182;27.506;2023-07-22T03:55:53;58809.00;;;-144.94;100.00
47738;BME280;33502;47.182;27.506;2023-07-22T03:58:19;58809.00;;;-144.94;100.00
47738;BME280;33502;47.182;27.506;2023-07-22T04:00:47;58809.00;;;-144.94;100.00
47738;BME280;33502;47.182;27.506;2023-07-22T04:03:13;58809.00;;;-144.94;100.00
47738;BME280;33502;47.182;27.506;2023-07-22T04:05:38;58809.00;;;-144.94;100.00
47738;BME280;33502;47.182;27.506;2023-07-22T04:08:04;58809.00;;;-144.94;100.00
47738;BME280;33502;47.182;27.506;2023-07-22T04:10:30;58809.00;;;-144.94;100.00
47738;BME280;33502;47.182;27.506;2023-07-22T04:12:55;58809.00;;;-144.94;100.00
47738;BME280;33502;47.182;27.506;2023-07-22T04:15:21;58809.00;;;-144.94;100.00
47738;BME280;33502;47.182;27.506;2023-07-22T04:17:46;58809.00;;;-144.94;100.00
47738;BME280;33502;47.182;27.506;2023-07-22T04:20:12;58809.00;;;-144.94;100.00
47738;BME280;33502;47.182;27.506;2023-07-22T04:22:38;58809.00;;;-144.94;100.00
47738;BME280;33502;47.182;27.506;2023-07-22T04:25:04;58809.00;;;-144.94;100.00
47738;BME280;33502;47.182;27.506;2023-07-22T04:27:30;58809.00;;;-144.94;100.00
47738;BME280;33502;47.182;27.506;2023-07-22T04:29:56;58809.00;;;-144.94;100.00
47738;BME280;33502;47.182;27.506;2023-07-22T04:32:21;58809.00;;;-144.94;100.00
47738;BME280;33502;47.182;27.506;2023-07-22T04:34:47;58809.00;;;-144.94;100.00
47738;BME280;33502;47.182;27.506;2023-07-22T04:37:12;58809.00;;;-144.94;100.00
47738;BME280;33502;47.182;27.506;2023-07-22T04:39:38;58809.00;;;-144.94;100.00
47738;BME280;33502;47.182;27.506;2023-07-22T04:42:04;58809.00;;;-144.94;100.00
47738;BME280;33502;47.182;27.506;2023-07-22T04:44:29;58809.00;;;-144.94;100.00
47738;BME280;33502;47.182;27.506;2023-07-22T04:46:55;58809.00;;;-144.94;100.00
47738;BME280;33502;47.182;27.506;2023-07-22T04:49:21;58809.00;;;-144.94;100.00
47738;BME280;33502;47.182;27.506;2023-07-22T04:51:47;58809.00;;;-144.94;100.00
47738;BME280;33502;47.182;27.506;2023-07-22T04:54:13;58809.00;;;-144.94;100.00
47738;BME280;33502;47.182;27.506;2023-07-22T04:56:39;58809.00;;;-144.94;100.00
47738;BME280;33502;47.182;27.506;2023-07-22T04:59:04;58809.00;;;-144.94;100.00
47738;BME280;33502;47.182;27.506;2023-07-22T05:01:30;58809.00;;;-144.94;100.00
47738;BME280;33502;47.182;27.506;2023-07-22T05:03:55;58809.00;;;-144.94;100.00
47738;BME280;33502;47.182;27.506;2023-07-22T05:06:21;58809.00;;;-144.94;100.00
47738;BME280;33502;47.182;27.506;2023-07-22T05:08:47;58809.00;;;-144.94;100.00
47738;BME280;33502;47.182;27.506;2023-07-22T05:24:33;99602.34;;;22.50;100.00
47738;BME280;33502;47.182;27.506;2023-07-22T05:26:59;99604.41;;;22.56;100.00
47738;BME280;33502;47.182;27.506;2023-07-22T05:29:24;99600.22;;;22.62;100.00
47738;BME280;33502;47.182;27.506;2023-07-22T05:31:50;99608.88;;;23.08;100.00
47738;BME280;33502;47.182;27.506;2023-07-22T05:34:15;99594.13;;;24.19;100.00
47738;BME280;33502;47.182;27.506;2023-07-22T05:36:41;99593.66;;;24.07;100.00
47738;BME280;33502;47.182;27.506;2023-07-22T05:39:07;99591.66;;;23.93;100.00
47738;BME280;33502;47.182;27.506;2023-07-22T05:41:33;99587.75;;;25.15;100.00
47738;BME280;33502;47.182;27.506;2023-07-22T05:43:58;99585.88;;;26.91;96.24
47738;BME280;33502;47.182;27.506;2023-07-22T05:46:24;99591.78;;;27.89;86.29
47738;BME280;33502;47.182;27.506;2023-07-22T05:48:50;99588.47;;;28.50;82.24
47738;BME280;33502;47.182;27.506;2023-07-22T05:51:15;99594.16;;;28.97;78.42
47738;BME280;33502;47.182;27.506;2023-07-22T05:53:41;99590.72;;;29.23;72.69
47738;BME280;33502;47.182;27.506;2023-07-22T05:56:07;99593.91;;;28.50;77.08
47738;BME280;33502;47.182;27.506;2023-07-22T05:58:32;99595.97;;;27.70;82.50
47738;BME280;33502;47.182;27.506;2023-07-22T06:00:58;99602.69;;;27.16;86.83
47738;BME280;33502;47.182;27.506;2023-07-22T06:03:24;99599.59;;;26.15;94.84
47738;BME280;33502;47.182;27.506;2023-07-22T06:05:49;99612.59;;;25.58;100.00
47738;BME280;33502;47.182;27.506;2023-07-22T06:08:15;99617.78;;;26.44;96.53
47738;BME280;33502;47.182;27.506;2023-07-22T06:10:40;99622.91;;;27.86;88.04
47738;BME280;33502;47.182;27.506;2023-07-22T06:13:06;99615.38;;;29.56;76.13
47738;BME280;33502;47.182;27.506;2023-07-22T06:15:32;99605.38;;;31.09;70.90
47738;BME280;33502;47.182;27.506;2023-07-22T06:17:58;99610.78;;;31.22;65.25
47738;BME280;33502;47.182;27.506;2023-07-22T06:20:24;99609.94;;;31.67;65.46
47738;BME280;33502;47.182;27.506;2023-07-22T06:22:49;99604.78;;;32.34;60.54
47738;BME280;33502;47.182;27.506;2023-07-22T06:25:15;99600.13;;;32.60;58.49
47738;BME280;33502;47.182;27.506;2023-07-22T06:27:41;99608.47;;;30.60;66.37
47738;BME280;33502;47.182;27.506;2023-07-22T06:30:07;99609.53;;;29.11;74.13
47738;BME280;33502;47.182;27.506;2023-07-22T06:32:33;99606.31;;;28.03;84.65
47738;BME280;33502;47.182;27.506;2023-07-22T06:34:59;99613.34;;;27.90;87.75
47738;BME280;33502;47.182;27.506;2023-07-22T06:37:25;99610.91;;;27.96;89.25
47738;BME280;33502;47.182;27.506;2023-07-22T06:39:51;99615.44;;;29.90;76.17
47738;BME280;33502;47.182;27.506;2023-07-22T06:42:17;99617.44;;;30.94;71.50
47738;BME280;33502;47.182;27.506;2023-07-22T06:44:43;99611.50;;;31.56;66.22
47738;BME280;33502;47.182;27.506;2023-07-22T06:47:09;99617.63;;;31.45;64.75
47738;BME280;33502;47.182;27.506;2023-07-22T06:49:34;99608.78;;;31.81;63.62
47738;BME280;33502;47.182;27.506;2023-07-22T06:52:00;99610.28;;;32.34;62.60
47738;BME280;33502;47.182;27.506;2023-07-22T06:54:27;99619.47;;;32.65;60.12
47738;BME280;33502;47.182;27.506;2023-07-22T06:56:53;99616.97;;;32.38;59.65
47738;BME280;33502;47.182;27.506;2023-07-22T06:59:19;99614.69;;;32.97;59.20
47738;BME280;33502;47.182;27.506;2023-07-22T07:01:45;99610.06;;;33.46;56.63
47738;BME280;33502;47.182;27.506;2023-07-22T07:04:10;99611.41;;;33.98;56.20
47738;BME280;33502;47.182;27.506;2023-07-22T07:06:36;99607.88;;;34.21;52.52
47738;BME280;33502;47.182;27.506;2023-07-22T07:09:03;99616.47;;;33.70;52.65
47738;BME280;33502;47.182;27.506;2023-07-22T07:11:29;99623.03;;;33.69;54.26
47738;BME280;33502;47.182;27.506;2023-07-22T07:13:55;99619.44;;;32.21;57.81
47738;BME280;33502;47.182;27.506;2023-07-22T07:16:27;99623.63;;;29.90;66.50
47738;BME280;33502;47.182;27.506;2023-07-22T07:31:48;99622.56;;;33.42;58.48
47738;BME280;33502;47.182;27.506;2023-07-22T07:34:13;99622.25;;;33.81;55.44
47738;BME280;33502;47.182;27.506;2023-07-22T07:36:39;99630.91;;;32.80;57.76
47738;BME280;33502;47.182;27.506;2023-07-22T07:39:04;99627.19;;;32.49;58.71
47738;BME280;33502;47.182;27.506;2023-07-22T07:41:30;99624.06;;;31.95;62.13
47738;BME280;33502;47.182;27.506;2023-07-22T07:43:55;99623.47;;;32.18;62.10
47738;BME280;33502;47.182;27.506;2023-07-22T07:48:51;99630.84;;;32.87;56.34
47738;BME280;33502;47.182;27.506;2023-07-22T07:51:17;99625.56;;;32.85;58.88
47738;BME280;33502;47.182;27.506;2023-07-22T07:53:44;99630.38;;;33.08;56.44
47738;BME280;33502;47.182;27.506;2023-07-22T07:56:10;99629.84;;;34.32;54.37
47738;BME280;33502;47.182;27.506;2023-07-22T07:58:36;99620.81;;;35.94;49.24
47738;BME280;33502;47.182;27.506;2023-07-22T08:01:02;99615.06;;;36.30;47.42
47738;BME280;33502;47.182;27.506;2023-07-22T08:03:27;99620.78;;;36.79;45.31
47738;BME280;33502;47.182;27.506;2023-07-22T08:05:53;99620.03;;;36.50;45.81
47738;BME280;33502;47.182;27.506;2023-07-22T08:08:19;99614.31;;;36.00;45.97
47738;BME280;33502;47.182;27.506;2023-07-22T08:10:44;99612.09;;;36.53;46.07
47738;BME280;33502;47.182;27.506;2023-07-22T08:13:10;99608.66;;;36.63;45.69
47738;BME280;33502;47.182;27.506;2023-07-22T08:15:36;99604.28;;;36.84;44.44
47738;BME280;33502;47.182;27.506;2023-07-22T08:18:02;99614.84;;;36.31;46.28
47738;BME280;33502;47.182;27.506;2023-07-22T08:20:29;99612.88;;;37.10;44.96
47738;BME280;33502;47.182;27.506;2023-07-22T08:22:56;99620.47;;;37.69;43.40
47738;BME280;33502;47.182;27.506;2023-07-22T08:25:21;99618.34;;;36.10;44.65
47738;BME280;33502;47.182;27.506;2023-07-22T08:27:47;99625.91;;;34.28;48.09
47738;BME280;33502;47.182;27.506;2023-07-22T08:30:12;99622.75;;;32.48;54.26
47738;BME280;33502;47.182;27.506;2023-07-22T08:32:38;99637.16;;;31.03;56.88
47738;BME280;33502;47.182;27.506;2023-07-22T08:35:04;99633.84;;;31.46;57.65
47738;BME280;33502;47.182;27.506;2023-07-22T08:37:30;99628.94;;;33.97;51.84
47738;BME280;33502;47.182;27.506;2023-07-22T08:39:56;99621.72;;;35.25;46.18
47738;BME280;33502;47.182;27.506;2023-07-22T08:42:21;99636.06;;;35.68;42.52
47738;BME280;33502;47.182;27.506;2023-07-22T08:44:48;99640.69;;;36.13;40.67
47738;BME280;33502;47.182;27.506;2023-07-22T08:47:17;99641.97;;;36.39;40.15
47738;BME280;33502;47.182;27.506;2023-07-22T08:49:46;99643.03;;;35.87;41.87
47738;BME280;33502;47.182;27.506;2023-07-22T08:52:14;99644.38;;;36.19;42.85
47738;BME280;33502;47.182;27.506;2023-07-22T08:54:41;99643.91;;;36.61;41.55
47738;BME280;33502;47.182;27.506;2023-07-22T08:57:07;99635.06;;;36.20;41.99
47738;BME280;33502;47.182;27.506;2023-07-22T08:59:33;99639.47;;;36.21;42.10
47738;BME280;33502;47.182;27.506;2023-07-22T09:01:59;99647.47;;;36.39;41.42
47738;BME280;33502;47.182;27.506;2023-07-22T09:04:25;99640.03;;;36.96;41.64
47738;BME280;33502;47.182;27.506;2023-07-22T09:06:50;99637.84;;;36.98;40.37
47738;BME280;33502;47.182;27.506;2023-07-22T09:09:16;99634.78;;;37.16;40.55
47738;BME280;33502;47.182;27.506;2023-07-22T09:11:42;99638.91;;;37.14;40.24
47738;BME280;33502;47.182;27.506;2023-07-22T09:14:10;99635.66;;;36.78;40.36
47738;BME280;33502;47.182;27.506;2023-07-22T09:16:36;99642.75;;;34.79;45.25
47738;BME280;33502;47.182;27.506;2023-07-22T09:19:03;99631.56;;;32.94;49.19
47738;BME280;33502;47.182;27.506;2023-07-22T09:21:28;99636.38;;;31.79;53.17
47738;BME280;33502;47.182;27.506;2023-07-22T09:23:54;99639.75;;;30.91;55.94
47738;BME280;33502;47.182;27.506;2023-07-22T09:26:20;99640.25;;;30.35;59.10
47738;BME280;33502;47.182;27.506;2023-07-22T09:28:56;99643.81;;;30.02;62.45
47738;BME280;33502;47.182;27.506;2023-07-22T09:31:25;99643.63;;;30.37;62.48
47738;BME280;33502;47.182;27.506;2023-07-22T09:33:52;99639.38;;;31.33;60.71
47738;BME280;33502;47.182;27.506;2023-07-22T09:36:19;99640.28;;;31.58;58.57
47738;BME280;33502;47.182;27.506;2023-07-22T09:38:45;99641.38;;;31.89;56.25
47738;BME280;33502;47.182;27.506;2023-07-22T09:41:10;99640.88;;;31.99;54.58
47738;BME280;33502;47.182;27.506;2023-07-22T09:43:36;99637.97;;;31.62;55.81
47738;BME280;33502;47.182;27.506;2023-07-22T09:46:07;99637.78;;;32.21;55.17
47738;BME280;33502;47.182;27.506;2023-07-22T09:48:43;99635.31;;;33.18;52.87
47738;BME280;33502;47.182;27.506;2023-07-22T09:51:16;99642.41;;;34.17;48.97
47738;BME280;33502;47.182;27.506;2023-07-22T09:53:48;99632.00;;;34.89;47.03
47738;BME280;33502;47.182;27.506;2023-07-22T09:56:24;99640.94;;;34.26;45.11
47738;BME280;33502;47.182;27.506;2023-07-22T09:58:49;99648.88;;;33.62;46.99
47738;BME280;33502;47.182;27.506;2023-07-22T10:01:16;99648.00;;;34.33;45.65
47738;BME280;33502;47.182;27.506;2023-07-22T10:03:44;99654.31;;;35.05;45.10
47738;BME280;33502;47.182;27.506;2023-07-22T10:06:10;99652.16;;;35.47;42.73
47738;BME280;33502;47.182;27.506;2023-07-22T10:08:36;99654.84;;;34.78;43.24
47738;BME280;33502;47.182;27.506;2023-07-22T10:11:03;99659.84;;;34.34;44.15
47738;BME280;33502;47.182;27.506;2023-07-22T10:13:30;99654.91;;;33.40;46.97
47738;BME280;33502;47.182;27.506;2023-07-22T10:15:57;99650.88;;;33.06;47.86
47738;BME280;33502;47.182;27.506;2023-07-22T10:18:24;99661.66;;;32.64;49.36
47738;BME280;33502;47.182;27.506;2023-07-22T10:20:50;99660.47;;;32.03;51.34
47738;BME280;33502;47.182;27.506;2023-07-22T10:23:16;99663.31;;;31.37;53.35
47738;BME280;33502;47.182;27.506;2023-07-22T10:25:42;99674.19;;;31.06;56.36
47738;BME280;33502;47.182;27.506;2023-07-22T10:28:08;99673.38;;;30.85;57.94
47738;BME280;33502;47.182;27.506;2023-07-22T10:30:33;99678.41;;;30.88;58.51
47738;BME280;33502;47.182;27.506;2023-07-22T10:32:59;99680.53;;;30.79;59.40
47738;BME280;33502;47.182;27.506;2023-07-22T10:40:44;99684.97;;;30.27;63.46
47738;BME280;33502;47.182;27.506;2023-07-22T10:43:10;99683.69;;;30.30;63.94
47738;BME280;33502;47.182;27.506;2023-07-22T10:45:42;99688.34;;;30.42;65.01
47738;BME280;33502;47.182;27.506;2023-07-22T10:48:09;99688.53;;;30.81;64.80
47738;BME280;33502;47.182;27.506;2023-07-22T10:50:44;99691.13;;;31.34;63.44
47738;BME280;33502;47.182;27.506;2023-07-22T10:53:37;99693.56;;;31.94;62.94
47738;BME280;33502;47.182;27.506;2023-07-22T10:56:04;99696.09;;;32.53;60.32
47738;BME280;33502;47.182;27.506;2023-07-22T10:58:54;99691.28;;;32.73;61.46
47738;BME280;33502;47.182;27.506;2023-07-22T11:07:02;99712.03;;;32.37;58.98
47738;BME280;33502;47.182;27.506;2023-07-22T11:12:00;99704.25;;;32.60;59.83
47738;BME280;33502;47.182;27.506;2023-07-22T11:14:27;99712.63;;;33.08;58.85
47738;BME280;33502;47.182;27.506;2023-07-22T11:16:54;99712.44;;;33.28;56.89
47738;BME280;33502;47.182;27.506;2023-07-22T11:19:21;99712.66;;;34.36;55.46
47738;BME280;33502;47.182;27.506;2023-07-22T11:21:48;99709.34;;;34.81;51.41
47738;BME280;33502;47.182;27.506;2023-07-22T11:24:14;99712.44;;;34.07;52.06
47738;BME280;33502;47.182;27.506;2023-07-22T11:26:40;99714.94;;;33.48;52.08
47738;BME280;33502;47.182;27.506;2023-07-22T11:29:07;99721.53;;;33.04;54.58
47738;BME280;33502;47.182;27.506;2023-07-22T11:31:40;99711.03;;;33.74;52.70
47738;BME280;33502;47.182;27.506;2023-07-22T11:34:09;99712.97;;;34.28;57.05
47738;BME280;33502;47.182;27.506;2023-07-22T11:36:35;99716.25;;;34.48;52.19
47738;BME280;33502;47.182;27.506;2023-07-22T11:39:20;99710.31;;;34.99;50.27
47738;BME280;33502;47.182;27.506;2023-07-22T11:41:46;99707.78;;;35.09;48.44
47738;BME280;33502;47.182;27.506;2023-07-22T11:44:13;99710.06;;;34.77;48.87
47738;BME280;33502;47.182;27.506;2023-07-22T11:46:52;99701.19;;;34.39;50.01
47738;BME280;33502;47.182;27.506;2023-07-22T11:49:22;99713.47;;;33.94;49.34
47738;BME280;33502;47.182;27.506;2023-07-22T11:51:48;99712.09;;;32.81;51.11
47738;BME280;33502;47.182;27.506;2023-07-22T11:54:14;99717.72;;;32.04;55.03
47738;BME280;33502;47.182;27.506;2023-07-22T11:56:42;99720.09;;;31.55;57.99
47738;BME280;33502;47.182;27.506;2023-07-22T11:59:08;99709.56;;;32.80;54.61
47738;BME280;33502;47.182;27.506;2023-07-22T12:01:34;99709.53;;;33.90;53.03
47738;BME280;33502;47.182;27.506;2023-07-22T12:03:59;99708.59;;;34.39;51.20
47738;BME280;33502;47.182;27.506;2023-07-22T12:06:26;99697.78;;;34.13;48.51
47738;BME280;33502;47.182;27.506;2023-07-22T12:08:52;99693.31;;;34.01;48.96
47738;BME280;33502;47.182;27.506;2023-07-22T12:13:43;99702.88;;;34.64;48.95
47738;BME280;33502;47.182;27.506;2023-07-22T12:16:22;99705.41;;;34.89;48.56
47738;BME280;33502;47.182;27.506;2023-07-22T12:18:53;99706.63;;;33.85;49.84
47738;BME280;33502;47.182;27.506;2023-07-22T12:21:19;99713.38;;;32.97;51.05
47738;BME280;33502;47.182;27.506;2023-07-22T12:23:45;99718.00;;;32.28;55.32
47738;BME280;33502;47.182;27.506;2023-07-22T12:26:11;99715.91;;;31.53;60.30
47738;BME280;33502;47.182;27.506;2023-07-22T12:28:36;99725.72;;;30.82;64.59
47738;BME280;33502;47.182;27.506;2023-07-22T12:31:02;99730.94;;;30.10;68.42
47738;BME280;33502;47.182;27.506;2023-07-22T12:33:27;99736.28;;;29.70;71.64
47738;BME280;33502;47.182;27.506;2023-07-22T12:35:53;99738.50;;;29.46;73.37
47738;BME280;33502;47.182;27.506;2023-07-22T12:38:19;99735.03;;;29.31;75.58
47738;BME280;33502;47.182;27.506;2023-07-22T12:40:45;99738.91;;;29.50;74.50
47738;BME280;33502;47.182;27.506;2023-07-22T12:43:11;99734.13;;;31.07;69.23
47738;BME280;33502;47.182;27.506;2023-07-22T12:45:36;99734.34;;;32.41;65.63
47738;BME280;33502;47.182;27.506;2023-07-22T12:48:02;99733.63;;;33.21;56.45
47738;BME280;33502;47.182;27.506;2023-07-22T12:50:29;99744.84;;;33.87;52.93
47738;BME280;33502;47.182;27.506;2023-07-22T12:52:55;99734.72;;;34.18;53.87
47738;BME280;33502;47.182;27.506;2023-07-22T12:55:20;99730.13;;;34.42;51.61
47738;BME280;33502;47.182;27.506;2023-07-22T12:57:46;99740.53;;;34.51;53.04
47738;BME280;33502;47.182;27.506;2023-07-22T13:00:12;99734.00;;;34.22;53.68
47738;BME280;33502;47.182;27.506;2023-07-22T13:02:37;99734.53;;;34.43;51.66
47738;BME280;33502;47.182;27.506;2023-07-22T13:05:03;99727.34;;;34.30;53.92
47738;BME280;33502;47.182;27.506;2023-07-22T13:07:29;99736.09;;;34.50;51.57
47738;BME280;33502;47.182;27.506;2023-07-22T13:09:55;99735.06;;;34.87;50.87
47738;BME280;33502;47.182;27.506;2023-07-22T13:12:23;99741.16;;;34.89;49.45
47738;BME280;33502;47.182;27.506;2023-07-22T13:14:48;99749.31;;;34.84;49.72
47738;BME280;33502;47.182;27.506;2023-07-22T13:17:14;99749.53;;;34.82;50.57
47738;BME280;33502;47.182;27.506;2023-07-22T13:19:39;99737.25;;;34.31;49.19